Time;durP1;ratioP1;P1;durP2;ratioP2;P2;SDS_P1;SDS_P2;PMS_P1;PMS_P2;Temp;Humidity;BMP_temperature;BMP_pressure;BME280_temperature;BME280_humidity;BME280_pressure;Samples;Min_cycle;Max_cycle;Signal;HPM_P1;HPM_P2
2024/03/12 00:01:44;;;;;;;18.23;11.85;;;;;;;12.68;100.00;135589.06;5049865;28;20029;-70
2024/03/12 00:04:10;;;;;;;18.58;11.48;;;;;;;12.73;100.00;135615.88;5052941;28;20522;-70
2024/03/12 00:06:36;;;;;;;19.60;11.88;;;;;;;12.67;100.00;135597.13;5048178;28;20102;-70
2024/03/12 00:09:06;;;;;;;17.90;11.57;;;;;;;12.60;100.00;135551.44;5048566;28;20119;-72
2024/03/12 00:11:35;;;;;;;16.50;11.82;;;;;;;12.65;100.00;135600.31;5066359;28;20410;-71
2024/03/12 00:14:00;;;;;;;16.52;12.10;;;;;;;12.66;100.00;135611.44;5051233;28;20055;-71
2024/03/12 00:16:26;;;;;;;15.75;11.90;;;;;;;11.97;100.00;135474.09;5051143;28;20068;-74
2024/03/12 00:18:54;;;;;;;17.13;12.35;;;;;;;12.12;100.00;135508.09;5051067;28;20064;-70
2024/03/12 00:21:23;;;;;;;16.60;11.35;;;;;;;12.53;100.00;135605.16;5050111;28;20068;-70
2024/03/12 00:23:48;;;;;;;17.52;12.40;;;;;;;12.38;100.00;135573.66;5049624;28;20025;-72
2024/03/12 00:26:14;;;;;;;19.65;12.32;;;;;;;12.18;100.00;135490.81;5049528;28;20419;-69
2024/03/12 00:28:40;;;;;;;19.58;12.02;;;;;;;11.92;100.00;135438.47;5050686;28;20119;-69
2024/03/12 00:31:12;;;;;;;16.02;11.93;;;;;;;12.40;100.00;135556.50;5051082;28;20626;-71
2024/03/12 00:33:38;;;;;;;15.55;12.48;;;;;;;12.37;100.00;135460.69;5066352;28;20033;-69
2024/03/12 00:36:03;;;;;;;16.40;12.68;;;;;;;11.87;100.00;135417.97;5049520;28;20040;-73
2024/03/12 00:38:29;;;;;;;18.52;11.75;;;;;;;12.42;100.00;135469.41;5050794;28;20036;-69
2024/03/12 00:40:55;;;;;;;17.45;12.40;;;;;;;12.27;100.00;135460.03;5050763;28;20040;-69
2024/03/12 00:43:23;;;;;;;17.63;12.75;;;;;;;11.86;100.00;135404.28;5049347;28;20029;-73
2024/03/12 00:45:48;;;;;;;18.80;13.25;;;;;;;11.77;100.00;135421.03;5066216;28;20032;-72
2024/03/12 00:48:14;;;;;;;22.45;14.77;;;;;;;11.71;100.00;135363.69;5050336;28;20505;-70
2024/03/12 00:50:40;;;;;;;21.85;14.48;;;;;;;11.84;100.00;135408.63;5050368;28;20033;-70
2024/03/12 00:53:07;;;;;;;20.92;14.40;;;;;;;11.89;100.00;135381.31;5048889;28;20174;-73
2024/03/12 00:55:34;;;;;;;27.40;15.32;;;;;;;11.47;100.00;135311.81;5047521;28;20415;-70
2024/03/12 00:57:59;;;;;;;19.98;14.20;;;;;;;12.08;100.00;135441.28;5053771;28;20044;-70
2024/03/12 01:00:28;;;;;;;21.50;14.57;;;;;;;11.58;100.00;135331.63;5038021;28;20064;-73
2024/03/12 01:02:55;;;;;;;25.60;15.07;;;;;;;11.79;100.00;135404.97;5035236;28;20124;-70
2024/03/12 01:05:26;;;;;;;24.52;15.30;;;;;;;11.96;100.00;135399.75;5034752;28;20030;-72
2024/03/12 01:07:53;;;;;;;21.48;14.45;;;;;;;11.97;100.00;135434.34;5040641;28;20037;-70
2024/03/12 01:10:20;;;;;;;22.45;14.25;;;;;;;11.48;100.00;135308.97;5038211;28;20112;-72
2024/03/12 01:12:50;;;;;;;21.13;14.30;;;;;;;11.93;100.00;135434.16;5040574;28;20044;-70
2024/03/12 01:15:18;;;;;;;23.95;14.40;;;;;;;11.33;100.00;135287.81;5042089;28;20033;-69
2024/03/12 01:17:44;;;;;;;22.83;14.32;;;;;;;11.96;100.00;135435.78;5037369;28;20096;-69
2024/03/12 01:20:10;;;;;;;21.60;14.40;;;;;;;11.62;100.00;135350.97;5042621;28;20021;-69
2024/03/12 01:22:37;;;;;;;19.33;13.93;;;;;;;11.85;100.00;135408.28;5043423;28;20131;-69
2024/03/12 01:25:06;;;;;;;20.92;14.48;;;;;;;12.05;100.00;135355.81;5054187;28;20033;-70
2024/03/12 01:27:36;;;;;;;22.08;14.15;;;;;;;11.86;100.00;135383.69;5040664;28;20065;-73
2024/03/12 01:30:06;;;;;;;24.40;14.43;;;;;;;11.84;100.00;135336.56;5056409;28;20036;-69
2024/03/12 01:32:36;;;;;;;21.00;16.03;;;;;;;11.82;100.00;135308.88;5039841;28;20033;-70
2024/03/12 01:35:03;;;;;;;22.27;16.13;;;;;;;11.82;100.00;135293.44;5037316;28;20087;-70
2024/03/12 01:37:29;;;;;;;27.70;14.63;;;;;;;11.91;100.00;135311.25;5038850;28;20036;-70
2024/03/12 01:39:56;;;;;;;23.58;15.10;;;;;;;11.83;100.00;135284.25;5035905;28;20037;-69
2024/03/12 01:42:22;;;;;;;23.08;15.52;;;;;;;11.60;100.00;135198.72;5041419;28;20063;-72
2024/03/12 01:44:50;;;;;;;26.00;16.25;;;;;;;11.22;100.00;135114.97;5038237;28;20049;-69
2024/03/12 01:47:17;;;;;;;23.33;16.33;;;;;;;11.64;100.00;135164.03;5041681;28;20029;-70
2024/03/12 01:49:44;;;;;;;23.55;16.48;;;;;;;11.66;100.00;135144.03;5038976;28;20086;-69
2024/03/12 01:52:09;;;;;;;27.13;17.20;;;;;;;11.41;100.00;135094.00;5041264;28;20033;-69
2024/03/12 01:54:35;;;;;;;26.77;16.23;;;;;;;11.28;100.00;135074.56;5041427;28;20485;-69
2024/03/12 01:57:00;;;;;;;25.15;16.88;;;;;;;11.37;100.00;135120.94;5063217;28;20045;-68
2024/03/12 01:59:26;;;;;;;25.25;16.30;;;;;;;11.35;100.00;135055.81;5067822;28;20063;-70
2024/03/12 02:02:01;;;;;;;23.17;16.63;;;;;;;11.49;100.00;135149.22;5069132;28;20063;-69
2024/03/12 02:04:26;;;;;;;23.90;16.17;;;;;;;10.96;100.00;135031.84;5069034;28;20098;-69
2024/03/12 02:06:52;;;;;;;25.52;16.63;;;;;;;10.75;100.00;134990.66;5050498;28;20076;-69
2024/03/12 02:09:20;;;;;;;25.48;16.92;;;;;;;11.07;100.00;135073.28;5068630;28;20031;-70
2024/03/12 02:11:46;;;;;;;23.10;16.63;;;;;;;11.13;100.00;135024.09;5069246;28;20089;-69
2024/03/12 02:14:11;;;;;;;26.00;17.40;;;;;;;10.85;100.00;134999.28;5069113;28;20032;-69
2024/03/12 02:16:38;;;;;;;24.00;16.30;;;;;;;11.16;100.00;135069.41;5068908;28;20101;-70
2024/03/12 02:19:05;;;;;;;26.23;17.33;;;;;;;10.40;100.00;134902.34;5068881;28;20051;-70
2024/03/12 02:21:31;;;;;;;26.30;17.73;;;;;;;11.09;100.00;135051.00;5049953;28;20024;-69
2024/03/12 02:23:57;;;;;;;26.45;17.27;;;;;;;10.61;100.00;134957.84;5068907;28;20039;-69
2024/03/12 02:26:24;;;;;;;23.55;16.55;;;;;;;11.07;100.00;135054.19;5074537;28;20414;-69
2024/03/12 02:28:50;;;;;;;22.02;16.17;;;;;;;11.07;100.00;135036.22;5069508;28;20070;-70
2024/03/12 02:31:15;;;;;;;26.92;17.88;;;;;;;10.42;100.00;134860.66;5068073;28;20029;-71
2024/03/12 02:33:41;;;;;;;23.65;17.15;;;;;;;11.09;100.00;135000.72;5067373;28;20056;-69
2024/03/12 02:36:07;;;;;;;25.25;17.40;;;;;;;11.03;100.00;134962.94;5050160;28;20491;-69
2024/03/12 02:38:38;;;;;;;27.23;17.55;;;;;;;10.57;100.00;134870.34;5066995;28;20028;-70
2024/03/12 02:41:07;;;;;;;25.00;17.52;;;;;;;10.71;100.00;134870.03;5068400;28;20380;-69
2024/03/12 02:43:32;;;;;;;25.98;18.38;;;;;;;10.46;100.00;134815.81;5068432;28;20385;-70
2024/03/12 02:45:57;;;;;;;27.05;18.20;;;;;;;10.41;100.00;134771.16;5068764;28;20039;-71
2024/03/12 02:48:25;;;;;;;24.65;17.80;;;;;;;11.08;100.00;134916.25;5067896;28;20567;-69
2024/03/12 02:50:51;;;;;;;28.63;18.08;;;;;;;11.00;100.00;134903.31;5054685;28;20036;-69
2024/03/12 02:53:16;;;;;;;25.25;18.20;;;;;;;10.05;100.00;134623.09;5068654;28;20124;-69
2024/03/12 02:55:42;;;;;;;26.30;18.23;;;;;;;10.71;100.00;134780.16;5050277;28;20123;-69
2024/03/12 02:58:08;;;;;;;26.67;17.17;;;;;;;11.00;100.00;134795.41;5055122;28;20086;-69
2024/03/12 03:00:35;;;;;;;24.40;17.65;;;;;;;11.00;100.00;134762.00;5068343;28;20029;-69
2024/03/12 03:03:02;;;;;;;25.23;17.40;;;;;;;10.43;100.00;134643.66;5066141;28;20110;-71
2024/03/12 03:05:28;;;;;;;23.52;17.50;;;;;;;10.98;100.00;134730.69;5067886;28;20032;-69
2024/03/12 03:07:54;;;;;;;25.65;17.65;;;;;;;10.87;100.00;134711.00;5049786;28;20086;-70
2024/03/12 03:10:20;;;;;;;27.30;17.38;;;;;;;10.58;100.00;134646.66;5049331;28;20105;-69
2024/03/12 03:12:46;;;;;;;25.50;17.25;;;;;;;11.07;100.00;134739.25;5066809;28;20483;-70
2024/03/12 03:15:12;;;;;;;28.00;16.88;;;;;;;10.50;100.00;134608.09;5066626;28;20081;-70
2024/03/12 03:17:45;;;;;;;26.63;17.15;;;;;;;11.06;100.00;134735.88;5068378;28;20414;-70
2024/03/12 03:20:14;;;;;;;26.33;17.45;;;;;;;10.19;100.00;134544.44;5067647;28;20102;-69
2024/03/12 03:22:39;;;;;;;27.70;16.13;;;;;;;11.30;100.00;134759.22;5049756;28;20486;-70
2024/03/12 03:25:05;;;;;;;22.20;15.73;;;;;;;10.78;100.00;134658.41;5066906;28;20058;-69
2024/03/12 03:27:31;;;;;;;24.38;16.23;;;;;;;10.74;100.00;134671.38;5068000;28;20159;-70
2024/03/12 03:29:59;;;;;;;21.88;16.55;;;;;;;10.81;100.00;134602.44;5067112;28;20029;-70
2024/03/12 03:32:25;;;;;;;27.40;18.33;;;;;;;10.90;100.00;134675.22;5066856;28;20035;-70
2024/03/12 03:34:51;;;;;;;24.25;18.20;;;;;;;10.70;100.00;134650.66;5050069;28;20320;-69
2024/03/12 03:37:16;;;;;;;27.38;18.20;;;;;;;11.05;100.00;134715.66;5057578;28;20423;-68
2024/03/12 03:39:42;;;;;;;25.90;17.83;;;;;;;10.76;100.00;134670.75;5065638;28;20024;-69
2024/03/12 03:42:08;;;;;;;27.05;18.25;;;;;;;11.26;100.00;134833.59;5047982;28;20031;-69
2024/03/12 03:44:33;;;;;;;23.75;17.08;;;;;;;10.77;100.00;134737.22;5057368;28;20035;-70
2024/03/12 03:46:59;;;;;;;26.63;18.23;;;;;;;11.28;100.00;134789.25;5069926;28;20414;-70
2024/03/12 03:49:24;;;;;;;29.25;18.63;;;;;;;11.11;100.00;134842.25;5070402;28;20031;-69
2024/03/12 03:51:51;;;;;;;29.10;17.55;;;;;;;10.76;100.00;134804.28;5051861;28;20032;-74
2024/03/12 03:54:17;;;;;;;25.20;17.90;;;;;;;10.84;100.00;134817.22;5072600;28;20160;-69
2024/03/12 03:56:45;;;;;;;25.50;17.98;;;;;;;11.43;100.00;134973.66;5070906;28;20520;-69
2024/03/12 03:59:13;;;;;;;28.27;16.95;;;;;;;11.48;100.00;134964.41;5067728;28;20032;-70
2024/03/12 04:01:39;;;;;;;26.35;16.48;;;;;;;10.78;100.00;134867.88;5070624;28;20028;-71
2024/03/12 04:04:10;;;;;;;24.10;17.15;;;;;;;11.32;100.00;135006.50;5071822;28;20067;-69
2024/03/12 04:06:37;;;;;;;25.38;17.15;;;;;;;11.47;100.00;135069.00;5073354;28;20036;-70
2024/03/12 04:09:08;;;;;;;22.48;17.58;;;;;;;10.95;100.00;134926.84;5070855;28;20035;-70
2024/03/12 04:11:33;;;;;;;26.50;17.30;;;;;;;10.97;100.00;134964.78;5069550;28;20032;-70
2024/03/12 04:13:59;;;;;;;23.80;17.45;;;;;;;10.96;100.00;134962.50;5072718;28;20043;-70
2024/03/12 04:16:25;;;;;;;22.95;16.17;;;;;;;11.56;100.00;135105.94;5082446;28;20756;-70
2024/03/12 04:18:51;;;;;;;25.98;17.77;;;;;;;11.42;100.00;134997.13;5073436;28;20032;-70
2024/03/12 04:21:17;;;;;;;26.20;16.98;;;;;;;10.88;100.00;134975.22;5054933;28;20124;-70
2024/03/12 04:23:42;;;;;;;25.15;17.85;;;;;;;11.17;100.00;135053.69;5068303;28;20498;-70
2024/03/12 04:26:08;;;;;;;25.42;16.83;;;;;;;11.24;100.00;134998.69;5067721;28;20044;-70
2024/03/12 04:28:34;;;;;;;23.58;17.58;;;;;;;10.19;100.00;134810.13;5069800;28;20044;-70
2024/03/12 04:31:00;;;;;;;25.90;17.90;;;;;;;11.12;100.00;135006.38;5069080;28;20032;-73
2024/03/12 04:33:26;;;;;;;27.25;18.02;;;;;;;10.75;100.00;134922.75;5068862;28;20357;-71
2024/03/12 04:35:52;;;;;;;24.63;16.92;;;;;;;10.07;100.00;134755.88;5069303;28;20041;-69
2024/03/12 04:38:18;;;;;;;27.58;17.35;;;;;;;10.75;100.00;134868.81;5068634;28;20174;-70
2024/03/12 04:40:47;;;;;;;27.38;18.60;;;;;;;10.72;100.00;134834.91;5069081;28;20584;-69
2024/03/12 04:43:13;;;;;;;25.80;18.08;;;;;;;10.80;100.00;134754.25;5067709;28;20024;-73
2024/03/12 04:45:42;;;;;;;29.40;19.80;;;;;;;10.84;100.00;134720.75;5068568;28;20061;-71
2024/03/12 04:48:08;;;;;;;25.98;18.27;;;;;;;10.79;100.00;134582.53;5070700;28;20056;-69
2024/03/12 04:50:33;;;;;;;25.98;18.00;;;;;;;10.45;100.00;134461.94;5068921;28;20055;-70
2024/03/12 04:52:59;;;;;;;27.48;18.58;;;;;;;10.99;100.00;134583.97;5068176;28;20635;-71
2024/03/12 04:55:24;;;;;;;29.40;19.08;;;;;;;10.34;100.00;134419.16;5068180;28;20544;-71
2024/03/12 04:57:50;;;;;;;35.63;19.63;;;;;;;10.65;100.00;134463.66;5067536;28;20557;-69
2024/03/12 05:00:18;;;;;;;29.42;18.98;;;;;;;10.20;100.00;134360.88;5049917;28;20293;-69
2024/03/12 05:02:47;;;;;;;29.50;19.42;;;;;;;10.73;100.00;134484.25;5069555;28;20112;-71
2024/03/12 05:05:18;;;;;;;32.33;20.80;;;;;;;10.45;100.00;134383.81;5046892;28;20032;-71
2024/03/12 05:07:44;;;;;;;31.75;21.33;;;;;;;10.62;100.00;134396.41;5067469;28;20036;-70
2024/03/12 05:10:11;;;;;;;34.30;22.02;;;;;;;10.42;100.00;134319.13;5068061;28;20036;-70
2024/03/12 05:12:36;;;;;;;39.78;24.33;;;;;;;10.74;100.00;134379.78;5068832;28;20407;-71
2024/03/12 05:15:04;;;;;;;33.38;21.35;;;;;;;10.29;100.00;134253.97;5069291;28;20028;-73
2024/03/12 05:17:29;;;;;;;35.83;21.75;;;;;;;10.30;100.00;134224.31;5050583;28;20040;-71
2024/03/12 05:19:55;;;;;;;38.13;25.67;;;;;;;10.62;100.00;134350.19;5068826;28;20036;-71
2024/03/12 05:22:24;;;;;;;34.88;25.10;;;;;;;10.71;100.00;134348.81;5052722;28;20079;-69
2024/03/12 05:24:50;;;;;;;38.72;25.58;;;;;;;10.08;100.00;134197.88;5067989;28;20476;-69
2024/03/12 05:27:23;;;;;;;37.72;24.33;;;;;;;10.61;100.00;134278.66;5053354;28;20039;-74
2024/03/12 05:29:53;;;;;;;34.30;21.55;;;;;;;10.61;100.00;134276.09;5066191;28;20509;-69
2024/03/12 05:32:21;;;;;;;38.45;25.92;;;;;;;10.23;100.00;134152.13;5066983;28;21282;-70
2024/03/12 05:34:56;;;;;;;36.47;23.85;;;;;;;10.50;100.00;134215.38;5067054;28;20039;-70
2024/03/12 05:40:29;;;;;;;35.30;22.48;;;;;;;10.05;100.00;134169.16;5013935;28;20038;-68
2024/03/12 05:48:22;;;;;;;38.97;26.20;;;;;;;10.07;100.00;134090.44;5068357;28;20513;-70
2024/03/12 05:50:48;;;;;;;41.83;26.95;;;;;;;10.59;100.00;134065.09;5068885;28;20032;-71
2024/03/12 05:53:13;;;;;;;43.45;28.13;;;;;;;10.50;100.00;134234.81;5061621;28;20431;-69
2024/03/12 05:55:41;;;;;;;37.05;23.75;;;;;;;10.02;100.00;134259.81;5047364;28;20037;-70
2024/03/12 05:58:07;;;;;;;36.60;24.20;;;;;;;10.70;100.00;134546.78;5056553;28;20039;-71
2024/03/12 06:00:33;;;;;;;38.35;24.55;;;;;;;10.72;100.00;134672.00;5036348;28;20041;-74
2024/03/12 06:02:59;;;;;;;36.80;23.35;;;;;;;10.20;100.00;134689.25;5040803;28;20555;-71
2024/03/12 06:05:26;;;;;;;39.22;25.50;;;;;;;10.38;100.00;134770.91;5055642;28;20018;-69
2024/03/12 06:07:52;;;;;;;41.08;26.67;;;;;;;11.07;100.00;134894.91;5040140;28;20032;-70
2024/03/12 06:10:18;;;;;;;38.65;26.52;;;;;;;11.18;100.00;134937.72;5034393;28;20034;-69
2024/03/12 06:12:45;;;;;;;40.42;26.05;;;;;;;11.12;100.00;134985.84;5052769;28;20124;-70
2024/03/12 06:15:10;;;;;;;35.40;23.98;;;;;;;10.42;100.00;134792.78;5033278;28;20420;-70
2024/03/12 06:17:36;;;;;;;40.55;26.30;;;;;;;11.26;100.00;135021.22;5040594;28;20036;-69
2024/03/12 06:20:02;;;;;;;40.90;25.90;;;;;;;11.05;100.00;134945.44;5039973;28;20037;-71
2024/03/12 06:22:28;;;;;;;40.85;26.42;;;;;;;10.61;100.00;134968.09;5041613;28;20029;-70
2024/03/12 06:24:53;;;;;;;41.00;26.85;;;;;;;11.05;100.00;135077.94;5039130;28;21441;-71
2024/03/12 06:27:19;;;;;;;46.08;30.98;;;;;;;11.18;100.00;135163.88;5038708;28;20029;-69
2024/03/12 06:29:51;;;;;;;50.25;35.40;;;;;;;11.13;100.00;135203.97;5040769;28;20029;-69
2024/03/12 06:32:19;;;;;;;55.55;39.63;;;;;;;11.07;100.00;135182.69;5037064;28;20033;-69
2024/03/12 06:34:45;;;;;;;70.75;48.78;;;;;;;11.14;100.00;135242.19;5037577;28;20029;-69
2024/03/12 06:37:11;;;;;;;89.05;61.38;;;;;;;10.99;100.00;135286.41;5040962;28;20070;-69
2024/03/12 06:39:40;;;;;;;61.00;40.92;;;;;;;10.86;100.00;135289.22;5054124;28;20051;-69
2024/03/12 06:42:07;;;;;;;56.70;38.25;;;;;;;10.59;100.00;135429.47;5049114;28;20033;-73
2024/03/12 06:44:40;;;;;;;45.95;32.55;;;;;;;10.72;100.00;135497.47;5040627;28;20116;-68
2024/03/12 06:47:07;;;;;;;47.70;31.52;;;;;;;11.05;100.00;135771.75;5037105;28;20472;-71
2024/03/12 06:49:33;;;;;;;52.92;35.45;;;;;;;10.73;100.00;135765.75;5037443;28;20022;-73
2024/03/12 06:51:59;;;;;;;49.03;32.90;;;;;;;11.08;100.00;135887.66;5040348;28;20083;-71
2024/03/12 06:54:26;;;;;;;47.35;33.03;;;;;;;11.11;100.00;135925.28;5056247;28;20033;-71
2024/03/12 06:56:53;;;;;;;48.00;33.22;;;;;;;11.08;100.00;135957.03;5059324;28;20044;-70
2024/03/12 06:59:21;;;;;;;54.25;38.97;;;;;;;10.61;100.00;135879.69;5066610;28;20419;-70
2024/03/12 07:01:51;;;;;;;67.88;47.55;;;;;;;10.66;100.00;135847.38;5068821;28;20490;-71
2024/03/12 07:04:16;;;;;;;56.70;38.17;;;;;;;10.44;100.00;135854.94;5068215;28;20040;-71
2024/03/12 07:06:44;;;;;;;61.00;42.53;;;;;;;10.72;100.00;135993.19;5057663;28;20040;-71
2024/03/12 07:09:09;;;;;;;56.95;41.45;;;;;;;10.97;100.00;136078.44;5074064;28;20472;-71
2024/03/12 07:11:41;;;;;;;47.08;31.52;;;;;;;10.96;100.00;136234.34;5050502;28;20032;-71
2024/03/12 07:14:23;;;;;;;;;;;;;;;10.95;100.00;136269.19;5067865;28;20107;-70
2024/03/12 07:16:52;;;;;;;47.90;32.58;;;;;;;10.78;100.00;136096.78;5069102;28;19973;-70
2024/03/12 07:19:18;;;;;;;55.33;36.75;;;;;;;10.89;100.00;135978.00;5072676;28;20036;-74
2024/03/12 07:21:43;;;;;;;48.47;31.80;;;;;;;11.11;100.00;135731.44;5072437;28;20557;-71
2024/03/12 07:24:11;;;;;;;78.32;48.92;;;;;;;10.21;100.00;135203.22;5070622;28;20032;-71
2024/03/12 07:26:37;;;;;;;73.45;47.75;;;;;;;10.70;100.00;134898.56;5070926;28;20043;-70
2024/03/12 07:29:06;;;;;;;66.10;42.30;;;;;;;11.25;100.00;134681.16;5054191;28;20028;-71
2024/03/12 07:31:35;;;;;;;54.35;38.60;;;;;;;10.92;100.00;134280.50;5072233;28;20410;-70
2024/03/12 07:34:01;;;;;;;48.33;35.28;;;;;;;11.73;100.00;134039.91;5072100;28;20035;-70
2024/03/12 07:36:29;;;;;;;51.55;36.20;;;;;;;11.19;100.00;133707.75;5072632;28;20041;-70
2024/03/12 07:38:56;;;;;;;55.33;37.53;;;;;;;11.68;100.00;133533.63;5036401;28;20499;-71
2024/03/12 07:41:23;;;;;;;46.17;33.95;;;;;;;11.24;100.00;133372.13;5071977;28;20047;-68
2024/03/12 07:43:49;;;;;;;48.80;34.22;;;;;;;11.52;100.00;133545.50;5071802;28;20032;-71
2024/03/12 07:46:17;;;;;;;48.97;34.03;;;;;;;11.58;100.00;133490.66;5071948;28;20033;-68
2024/03/12 07:48:43;;;;;;;57.33;38.15;;;;;;;11.59;100.00;133552.00;5071927;28;20031;-75
2024/03/12 07:51:09;;;;;;;46.80;33.25;;;;;;;11.10;100.00;133447.59;5071771;28;20418;-68
2024/03/12 07:53:36;;;;;;;42.22;30.20;;;;;;;11.10;100.00;133463.03;5070120;28;20060;-69
2024/03/12 07:56:06;;;;;;;48.97;33.55;;;;;;;11.62;100.00;133447.06;5071274;28;20048;-69
2024/03/12 07:58:35;;;;;;;62.42;45.65;;;;;;;11.49;100.00;133336.88;5071965;28;20414;-68
2024/03/12 08:01:01;;;;;;;82.85;53.88;;;;;;;11.47;100.00;133380.16;5071662;28;20029;-70
2024/03/12 08:03:26;;;;;;;60.55;40.75;;;;;;;11.45;100.00;133492.41;5060603;28;20040;-69
2024/03/12 08:05:53;;;;;;;57.50;39.13;;;;;;;11.34;100.00;133365.06;5071742;28;20119;-69
2024/03/12 08:08:19;;;;;;;64.38;40.63;;;;;;;11.07;100.00;133164.66;5071943;28;20036;-70
2024/03/12 08:10:44;;;;;;;48.25;34.75;;;;;;;11.38;100.00;133203.28;5052808;28;20414;-70
2024/03/12 08:13:10;;;;;;;61.05;44.22;;;;;;;10.78;100.00;132844.75;5071335;28;20031;-72
2024/03/12 08:15:35;;;;;;;46.05;29.67;;;;;;;11.14;100.00;132761.66;5071457;28;20111;-68
2024/03/12 08:18:04;;;;;;;56.80;36.85;;;;;;;11.17;100.00;132479.59;5069582;28;20040;-69
2024/03/12 08:20:31;;;;;;;49.40;32.25;;;;;;;11.26;100.00;132432.75;5070809;28;20430;-68
2024/03/12 08:22:58;;;;;;;48.17;30.83;;;;;;;10.91;100.00;132095.94;5071738;28;20112;-69
2024/03/12 08:25:24;;;;;;;54.38;34.38;;;;;;;11.47;100.00;131993.72;5061550;28;20028;-69
2024/03/12 08:27:50;;;;;;;48.83;30.00;;;;;;;10.90;100.00;131454.66;5074946;28;20039;-68
2024/03/12 08:30:16;;;;;;;47.22;29.90;;;;;;;11.35;100.00;131205.59;5069014;28;20031;-73
2024/03/12 08:32:41;;;;;;;46.95;29.10;;;;;;;11.09;100.00;130735.25;5069458;28;20032;-69
2024/03/12 08:35:09;;;;;;;41.25;26.83;;;;;;;10.97;100.00;130371.81;5069439;28;20436;-71
2024/03/12 08:37:34;;;;;;;47.83;29.63;;;;;;;11.24;100.00;130299.81;5070653;28;20150;-70
2024/03/12 08:40:00;;;;;;;42.67;27.63;;;;;;;11.62;100.00;130204.41;5070677;28;20107;-71
2024/03/12 08:42:26;;;;;;;38.92;25.80;;;;;;;11.57;100.00;130040.50;5068948;28;20166;-70
2024/03/12 08:44:54;;;;;;;39.15;26.45;;;;;;;11.76;100.00;129976.59;5073080;28;20032;-70
2024/03/12 08:47:20;;;;;;;37.08;24.20;;;;;;;11.42;100.00;129707.53;5071759;28;20120;-69
2024/03/12 08:49:45;;;;;;;41.40;24.67;;;;;;;10.77;100.00;129506.03;5070235;28;20459;-69
2024/03/12 08:52:11;;;;;;;36.50;25.80;;;;;;;11.54;100.00;129432.09;5070780;28;20032;-71
2024/03/12 08:54:37;;;;;;;37.17;23.40;;;;;;;11.47;100.00;129279.38;5069744;28;20036;-70
2024/03/12 08:57:02;;;;;;;33.35;22.63;;;;;;;11.53;100.00;129142.41;5068361;28;20049;-70
2024/03/12 08:59:29;;;;;;;37.72;26.05;;;;;;;11.52;100.00;128902.59;5070060;28;20028;-71
2024/03/12 09:01:57;;;;;;;43.53;32.05;;;;;;;11.77;100.00;128879.50;5070363;28;20033;-70
2024/03/12 09:04:23;;;;;;;36.03;24.83;;;;;;;12.07;100.00;128863.44;5057759;28;20029;-71
2024/03/12 09:06:49;;;;;;;30.98;22.65;;;;;;;11.63;100.00;128891.81;5070876;28;20039;-71
2024/03/12 09:09:15;;;;;;;32.53;23.35;;;;;;;11.79;100.00;128921.25;5052956;28;20029;-71
2024/03/12 09:11:41;;;;;;;33.55;23.23;;;;;;;11.53;100.00;128971.47;5051248;28;20055;-71
2024/03/12 09:14:07;;;;;;;34.65;23.70;;;;;;;11.76;100.00;129098.19;5069824;28;20521;-71
2024/03/12 09:16:33;;;;;;;29.50;21.05;;;;;;;12.23;100.00;129401.66;5070355;28;20044;-71
2024/03/12 09:19:00;;;;;;;34.65;25.63;;;;;;;12.14;100.00;129472.16;5070870;28;20106;-71
2024/03/12 09:21:27;;;;;;;30.70;21.58;;;;;;;12.11;100.00;129720.06;5070521;28;20024;-71
2024/03/12 09:23:53;;;;;;;34.03;23.27;;;;;;;11.97;100.00;129878.34;5071230;28;20032;-71
2024/03/12 09:26:18;;;;;;;32.83;21.60;;;;;;;11.69;100.00;130019.34;5071129;28;20478;-70
2024/03/12 09:28:44;;;;;;;30.60;20.60;;;;;;;11.81;100.00;130216.09;5069674;28;20021;-71
2024/03/12 09:31:09;;;;;;;32.03;21.48;;;;;;;12.17;100.00;130410.22;5072186;28;20028;-71
2024/03/12 09:33:36;;;;;;;34.08;22.13;;;;;;;11.33;100.00;130448.91;5059712;28;20457;-71
2024/03/12 09:36:03;;;;;;;30.17;23.13;;;;;;;11.29;100.00;130465.84;5070091;28;20047;-68
2024/03/12 09:38:29;;;;;;;31.92;23.05;;;;;;;11.76;100.00;130612.59;5070477;28;20028;-70
2024/03/12 09:40:59;;;;;;;35.28;23.63;;;;;;;12.07;100.00;130817.69;5070202;28;20029;-69
2024/03/12 09:43:29;;;;;;;31.83;25.38;;;;;;;12.40;100.00;130753.97;5069198;28;20035;-72
2024/03/12 09:45:55;;;;;;;30.98;25.90;;;;;;;11.98;100.00;130985.59;5069458;28;20032;-71
2024/03/12 09:48:21;;;;;;;34.30;26.55;;;;;;;12.11;100.00;130912.75;5069826;28;20025;-71
2024/03/12 09:50:49;;;;;;;34.72;26.23;;;;;;;11.87;100.00;131065.78;5069947;28;20460;-71
2024/03/12 09:53:15;;;;;;;33.33;25.52;;;;;;;12.49;100.00;131258.38;5051845;28;20024;-69
2024/03/12 09:55:42;;;;;;;32.40;24.95;;;;;;;12.24;100.00;131176.72;5070458;28;20036;-70
2024/03/12 09:58:08;;;;;;;32.72;27.30;;;;;;;12.23;100.00;131318.50;5068089;28;20039;-71
2024/03/12 10:00:35;;;;;;;42.25;28.73;;;;;;;12.33;100.00;131296.75;5067621;28;20032;-71
2024/03/12 10:03:00;;;;;;;27.27;23.17;;;;;;;13.10;100.00;131517.44;5069234;28;20437;-71
2024/03/12 10:05:27;;;;;;;41.97;31.13;;;;;;;12.89;100.00;131500.63;5050669;28;20107;-70
2024/03/12 10:08:14;;;;;;;36.20;27.00;;;;;;;13.55;100.00;131606.03;5068228;28;20419;-75
2024/03/12 10:10:52;;;;;;;25.27;21.00;;;;;;;12.85;100.00;132142.16;5050800;28;20035;-71
2024/03/12 10:13:17;;;;;;;22.30;18.83;;;;;;;13.29;100.00;131865.78;5050679;28;20074;-70
2024/03/12 10:15:54;;;;;;;22.52;20.17;;;;;;;13.90;100.00;131796.47;5069166;28;20070;-73
2024/03/12 10:18:20;;;;;;;21.33;18.38;;;;;;;13.10;100.00;132037.72;5069142;28;20062;-70
2024/03/12 10:20:50;;;;;;;25.00;22.42;;;;;;;13.58;100.00;132219.91;5070166;28;20028;-70
2024/03/12 10:23:18;;;;;;;25.23;22.52;;;;;;;13.16;100.00;132092.16;5069399;28;20040;-70
2024/03/12 10:25:44;;;;;;;26.08;22.83;;;;;;;13.79;100.00;132228.72;5068862;28;20033;-70
2024/03/12 10:28:16;;;;;;;25.88;22.90;;;;;;;13.91;100.00;132146.91;5067020;28;20028;-71
2024/03/12 10:30:42;;;;;;;25.42;22.58;;;;;;;14.74;100.00;132016.56;5067686;28;20028;-70
2024/03/12 10:33:21;;;;;;;23.63;21.30;;;;;;;14.05;100.00;132629.66;4715696;28;10000198;-71
2024/03/12 10:35:47;;;;;;;25.85;21.05;;;;;;;13.74;100.00;132586.47;5066277;28;20048;-72
2024/03/12 10:38:26;;;;;;;23.13;20.80;;;;;;;13.63;100.00;132966.91;5066985;28;20025;-72
2024/03/12 10:40:56;;;;;;;25.63;22.88;;;;;;;14.10;100.00;132800.75;5065557;28;20051;-72
2024/03/12 10:43:26;;;;;;;24.80;21.60;;;;;;;14.06;100.00;132776.41;5063912;28;20437;-72
2024/03/12 10:45:54;;;;;;;22.65;20.20;;;;;;;13.82;100.00;132781.03;5065799;28;20140;-72
2024/03/12 10:48:20;;;;;;;22.67;20.38;;;;;;;14.40;100.00;133027.44;5049072;28;20039;-72
2024/03/12 10:50:48;;;;;;;22.38;20.08;;;;;;;14.36;100.00;132985.00;5067690;28;20112;-70
2024/03/12 10:53:14;;;;;;;23.08;20.52;;;;;;;13.76;100.00;133149.47;5066671;28;20029;-71
2024/03/12 10:55:41;;;;;;;24.08;21.50;;;;;;;13.94;100.00;133458.97;5068036;28;20045;-73
2024/03/12 10:58:09;;;;;;;22.95;19.70;;;;;;;13.96;100.00;133296.06;5069722;28;20049;-71
2024/03/12 11:00:39;;;;;;;24.45;21.60;;;;;;;13.19;100.00;133227.41;5065570;28;20487;-71
2024/03/12 11:03:06;;;;;;;27.92;24.75;;;;;;;13.62;100.00;133425.22;5068412;28;20388;-71
2024/03/12 11:05:32;;;;;;;29.75;23.38;;;;;;;13.85;100.00;133463.59;5053604;28;20028;-71
2024/03/12 11:07:59;;;;;;;23.95;19.92;;;;;;;14.32;100.00;133590.59;5070114;28;20052;-75
2024/03/12 11:10:27;;;;;;;23.52;20.80;;;;;;;13.98;100.00;133584.38;5068717;28;20029;-71